Port Allegany, Pennsylvania
Current Conditions -  °F | °C
As of 1:53 AM on Thursday 23 Oct 2014 (Local Time) from KBFD Reporting Station
Overcast Overcast  
Wind Chill: 35°   Ceiling: 600
Heat Index: 42°   Visibility: 10mi
Dew Point: 39°   Wind: 13mph
Humidity: 89%   Direction: 350°N
Pressure: 30.07"   Gusts: NA
Location:  41.81°N, 78.28°W
Report Text: KBFD 230553Z AUTO 35011KT 10SM OVC006 06/04 A3007 RMK AO2 SLP193 T00560039 10056 20044 58016
Loading
Personal Weather Stations






























Interactive Weather Map
Tropical Storm Tracking
New forecast layout! Learn more

10-Day Weather Forecast

Advertisements
Track Severe Weather on mobile